createdAt,value
2023-08-18T00:01:51.517Z,22.17
2023-08-18T00:04:18.416Z,21.98
2023-08-18T00:06:45.372Z,21.93
2023-08-18T00:09:12.523Z,21.99
2023-08-18T00:11:39.513Z,22.00
2023-08-18T00:14:06.326Z,21.96
2023-08-18T00:16:33.252Z,21.84
2023-08-18T00:19:01.640Z,21.79
2023-08-18T00:21:28.765Z,21.78
2023-08-18T00:23:55.627Z,21.81
2023-08-18T00:26:22.501Z,21.65
2023-08-18T00:28:49.464Z,21.54
2023-08-18T00:31:16.464Z,21.41
2023-08-18T00:33:43.575Z,21.30
2023-08-18T00:36:11.863Z,21.20
2023-08-18T00:38:38.777Z,21.08
2023-08-18T00:41:05.580Z,21.04
2023-08-18T00:43:32.520Z,20.92
2023-08-18T00:45:59.738Z,20.77
2023-08-18T00:48:27.584Z,20.69
2023-08-18T00:50:55.068Z,20.60
2023-08-18T00:53:23.787Z,20.54
2023-08-18T00:55:50.993Z,20.56
2023-08-18T00:58:18.379Z,20.55
2023-08-18T01:00:46.396Z,20.43
2023-08-18T01:03:13.426Z,20.34
2023-08-18T01:05:40.500Z,20.35
2023-08-18T01:08:07.411Z,20.31
2023-08-18T01:10:43.641Z,20.29
2023-08-18T01:13:15.676Z,20.26
2023-08-18T01:15:46.156Z,20.22
2023-08-18T01:18:14.415Z,20.14
2023-08-18T01:20:41.759Z,20.14
2023-08-18T01:23:10.133Z,20.10
2023-08-18T01:25:37.203Z,20.05
2023-08-18T01:28:05.016Z,20.01
2023-08-18T01:30:36.530Z,19.95
2023-08-18T01:33:13.913Z,19.94
2023-08-18T01:35:44.099Z,19.85
2023-08-18T01:38:13.294Z,19.92
2023-08-18T01:40:41.573Z,19.91
2023-08-18T01:43:08.399Z,19.86
2023-08-18T01:45:35.861Z,19.82
2023-08-18T01:48:03.448Z,19.78
2023-08-18T01:50:30.392Z,19.71
2023-08-18T01:52:57.245Z,19.68
2023-08-18T01:55:25.525Z,19.71
2023-08-18T01:57:52.405Z,19.66
2023-08-18T02:00:21.061Z,19.76
2023-08-18T02:02:48.619Z,19.83
2023-08-18T02:05:16.049Z,19.93
2023-08-18T02:07:42.847Z,19.95
2023-08-18T02:10:10.312Z,20.04
2023-08-18T02:12:38.956Z,20.15
2023-08-18T02:15:07.104Z,20.20
2023-08-18T02:17:34.231Z,20.28
2023-08-18T02:20:01.318Z,20.31
2023-08-18T02:22:28.200Z,20.41
2023-08-18T02:24:55.439Z,20.37
2023-08-18T02:27:22.309Z,20.33
2023-08-18T02:29:51.311Z,20.39
2023-08-18T02:32:19.730Z,20.48
2023-08-18T02:34:47.220Z,20.50
2023-08-18T02:37:14.262Z,20.49
2023-08-18T02:39:41.182Z,20.51
2023-08-18T02:42:08.225Z,20.46
2023-08-18T02:44:35.211Z,20.54
2023-08-18T02:47:04.201Z,20.54
2023-08-18T02:49:31.208Z,20.56
2023-08-18T02:51:58.128Z,20.59
2023-08-18T02:54:25.059Z,20.64
2023-08-18T02:56:51.976Z,20.76
2023-08-18T02:59:19.180Z,20.64
2023-08-18T03:01:46.425Z,20.72
2023-08-18T03:04:15.697Z,20.74
2023-08-18T03:06:42.966Z,20.77
2023-08-18T03:09:10.220Z,20.76
2023-08-18T03:11:37.141Z,20.52
2023-08-18T03:14:06.899Z,20.70
2023-08-18T03:16:33.769Z,20.78
2023-08-18T03:19:00.751Z,20.85
2023-08-18T03:21:29.182Z,20.66
2023-08-18T03:23:56.112Z,20.75
2023-08-18T03:26:23.092Z,20.75
2023-08-18T03:28:49.983Z,20.81
2023-08-18T03:31:16.892Z,20.85
2023-08-18T03:33:43.793Z,20.89
2023-08-18T03:36:10.807Z,21.01
2023-08-18T03:38:39.078Z,21.02
2023-08-18T03:41:07.622Z,21.01
2023-08-18T03:43:35.158Z,21.04
2023-08-18T03:46:04.662Z,20.97
2023-08-18T03:48:31.557Z,20.95
2023-08-18T03:50:58.579Z,21.05
2023-08-18T03:53:25.557Z,21.04
2023-08-18T03:55:57.083Z,21.01
2023-08-18T03:58:23.955Z,21.05
2023-08-18T04:00:50.885Z,21.05
2023-08-18T04:03:17.881Z,21.10
2023-08-18T04:05:48.077Z,20.74
2023-08-18T04:08:17.098Z,21.12
2023-08-18T04:10:44.119Z,21.06
2023-08-18T04:13:12.456Z,21.14
2023-08-18T04:15:39.483Z,21.14
2023-08-18T04:18:06.469Z,20.88
2023-08-18T04:20:33.342Z,21.14
2023-08-18T04:23:00.237Z,21.15
2023-08-18T04:25:27.143Z,21.21
2023-08-18T04:27:53.991Z,21.33
2023-08-18T04:30:22.313Z,21.22
2023-08-18T04:32:49.512Z,21.36
2023-08-18T04:35:16.470Z,21.40
2023-08-18T04:37:43.374Z,21.30
2023-08-18T04:40:10.753Z,21.46
2023-08-18T04:42:38.503Z,21.52
2023-08-18T04:45:06.524Z,21.43
2023-08-18T04:47:34.803Z,21.54
2023-08-18T04:50:01.657Z,21.60
2023-08-18T04:52:28.959Z,21.63
2023-08-18T04:54:55.995Z,21.57
2023-08-18T04:57:22.796Z,21.56
2023-08-18T04:59:49.783Z,21.57
2023-08-18T05:02:16.793Z,21.61
2023-08-18T05:04:45.199Z,21.54
2023-08-18T05:07:12.051Z,21.67
2023-08-18T05:09:39.110Z,21.51
2023-08-18T05:12:09.107Z,21.59
2023-08-18T05:14:36.371Z,21.68
2023-08-18T05:17:03.283Z,21.78
2023-08-18T05:19:30.159Z,21.81
2023-08-18T05:21:59.128Z,21.52
2023-08-18T05:24:25.978Z,21.74
2023-08-18T05:26:53.152Z,21.90
2023-08-18T05:29:20.029Z,21.87
2023-08-18T05:31:47.194Z,21.83
2023-08-18T05:34:14.391Z,21.82
2023-08-18T05:36:41.365Z,21.78
2023-08-18T05:39:09.751Z,21.94
2023-08-18T05:41:36.734Z,21.91
2023-08-18T05:44:04.051Z,22.00
2023-08-18T05:46:31.655Z,21.89
2023-08-18T05:48:58.584Z,21.62
2023-08-18T05:51:25.662Z,21.99
2023-08-18T05:53:52.467Z,22.13
2023-08-18T05:56:20.771Z,21.85
2023-08-18T05:58:47.838Z,21.47
2023-08-18T06:01:16.349Z,21.82
2023-08-18T06:03:43.237Z,21.68
2023-08-18T06:06:10.309Z,21.85
2023-08-18T06:08:37.293Z,21.96
2023-08-18T06:11:04.410Z,21.93
2023-08-18T06:13:32.834Z,21.82
2023-08-18T06:16:04.063Z,22.05
2023-08-18T06:18:30.962Z,21.80
2023-08-18T06:20:57.847Z,22.19
2023-08-18T06:23:24.742Z,22.27
2023-08-18T06:25:51.592Z,22.40
2023-08-18T06:28:18.577Z,22.29
2023-08-18T06:30:46.847Z,21.91
2023-08-18T06:33:13.766Z,22.07
2023-08-18T06:35:40.704Z,22.40
2023-08-18T06:38:07.530Z,22.45
2023-08-18T06:40:34.356Z,22.20
2023-08-18T06:43:01.157Z,22.40
2023-08-18T06:45:28.042Z,22.19
2023-08-18T06:47:56.394Z,22.38
2023-08-18T06:50:23.250Z,21.81
2023-08-18T06:52:50.068Z,22.42
2023-08-18T06:55:17.968Z,22.51
2023-08-18T06:57:49.434Z,22.17
2023-08-18T07:00:18.601Z,22.51
2023-08-18T07:02:47.225Z,22.30
2023-08-18T07:05:15.495Z,22.76
2023-08-18T07:07:42.346Z,22.70
2023-08-18T07:10:10.544Z,22.61
2023-08-18T07:12:37.562Z,22.34
2023-08-18T07:15:05.135Z,22.87
2023-08-18T07:17:31.951Z,22.86
2023-08-18T07:19:58.839Z,23.10
2023-08-18T07:22:27.781Z,22.53
2023-08-18T07:24:55.038Z,22.37
2023-08-18T07:27:21.908Z,22.49
2023-08-18T07:29:49.748Z,22.79
2023-08-18T07:32:17.228Z,22.71
2023-08-18T07:34:44.154Z,22.93
2023-08-18T07:37:11.134Z,22.87
2023-08-18T07:39:39.599Z,22.88
2023-08-18T07:42:07.124Z,22.87
2023-08-18T07:44:34.319Z,22.94
2023-08-18T07:47:01.462Z,23.18
2023-08-18T07:49:29.053Z,22.93
2023-08-18T07:51:55.973Z,22.71
2023-08-18T07:54:24.562Z,22.60
2023-08-18T07:56:54.043Z,23.11
2023-08-18T07:59:21.286Z,23.28
2023-08-18T08:01:48.519Z,22.95
2023-08-18T08:04:15.518Z,23.20
2023-08-18T08:06:42.470Z,23.27
2023-08-18T08:09:09.299Z,23.10
2023-08-18T08:11:36.123Z,23.45
2023-08-18T08:14:04.663Z,23.32
2023-08-18T08:16:31.512Z,23.38
2023-08-18T08:18:58.338Z,23.74
2023-08-18T08:21:25.797Z,23.64
2023-08-18T08:23:52.627Z,23.41
2023-08-18T08:26:19.507Z,23.21
2023-08-18T08:28:46.382Z,23.56
2023-08-18T08:31:15.105Z,23.41
2023-08-18T08:33:41.961Z,23.56
2023-08-18T08:36:08.740Z,23.50
2023-08-18T08:38:35.957Z,23.59
2023-08-18T08:41:02.821Z,23.58
2023-08-18T08:43:30.066Z,23.83
2023-08-18T08:45:59.442Z,23.85
2023-08-18T08:48:33.141Z,23.69
2023-08-18T08:51:06.751Z,23.61
2023-08-18T08:53:38.455Z,23.21
2023-08-18T08:56:09.709Z,23.34
2023-08-18T08:58:37.471Z,23.43
2023-08-18T09:01:08.133Z,23.31
2023-08-18T09:03:37.022Z,23.44
2023-08-18T09:06:04.303Z,23.38
2023-08-18T09:08:31.316Z,23.74
2023-08-18T09:10:58.485Z,23.89
2023-08-18T09:13:25.659Z,24.00
2023-08-18T09:15:52.526Z,24.03
2023-08-18T09:18:20.436Z,24.25
2023-08-18T09:20:48.857Z,24.52
2023-08-18T09:23:20.335Z,24.87
2023-08-18T09:25:50.989Z,25.29
2023-08-18T09:28:19.355Z,25.07
2023-08-18T09:30:48.236Z,25.10
2023-08-18T09:33:17.574Z,25.30
2023-08-18T09:35:57.119Z,25.09
2023-08-18T09:38:28.441Z,25.05
2023-08-18T09:40:57.299Z,25.05
2023-08-18T09:43:24.895Z,24.76
2023-08-18T09:45:53.911Z,24.51
2023-08-18T09:48:24.161Z,24.83
2023-08-18T09:50:55.108Z,24.69
2023-08-18T09:53:25.455Z,24.75
2023-08-18T09:55:57.401Z,24.88
2023-08-18T09:58:33.216Z,24.59
2023-08-18T10:01:00.330Z,24.58
2023-08-18T10:03:28.089Z,24.22
2023-08-18T10:05:56.562Z,24.06
2023-08-18T10:08:24.114Z,24.31
2023-08-18T10:10:51.705Z,24.07
2023-08-18T10:13:19.606Z,24.01
2023-08-18T10:15:48.224Z,24.11
2023-08-18T10:18:15.647Z,23.68
2023-08-18T10:20:50.320Z,24.12
2023-08-18T10:23:19.814Z,24.19
2023-08-18T10:25:50.416Z,24.34
2023-08-18T10:28:20.794Z,23.94
2023-08-18T10:30:52.347Z,24.98
2023-08-18T10:33:31.009Z,24.90
2023-08-18T10:35:58.693Z,24.50
2023-08-18T10:38:30.560Z,24.88
2023-08-18T10:40:57.848Z,25.15
2023-08-18T10:43:27.840Z,25.05
2023-08-18T10:45:59.995Z,25.48
2023-08-18T10:48:31.396Z,25.51
2023-08-18T10:50:58.209Z,25.69
2023-08-18T10:53:25.095Z,25.96
2023-08-18T10:55:56.670Z,25.93
2023-08-18T10:58:23.537Z,25.69
2023-08-18T11:00:51.212Z,26.28
2023-08-18T11:03:18.401Z,26.41
2023-08-18T11:05:46.593Z,26.89
2023-08-18T11:08:13.584Z,26.60
2023-08-18T11:10:41.417Z,26.50
2023-08-18T11:13:12.060Z,26.60
2023-08-18T11:15:39.028Z,26.89
2023-08-18T11:18:06.537Z,27.22
2023-08-18T11:20:33.524Z,26.96
2023-08-18T11:23:00.967Z,27.12
2023-08-18T11:25:28.081Z,27.54
2023-08-18T11:27:55.051Z,27.98
2023-08-18T11:30:23.554Z,28.41
2023-08-18T11:32:51.160Z,28.60
2023-08-18T11:35:20.305Z,28.08
2023-08-18T11:37:50.071Z,27.90
2023-08-18T11:40:19.177Z,28.03
2023-08-18T11:42:47.529Z,28.06
2023-08-18T11:45:16.885Z,27.99
2023-08-18T11:47:46.130Z,28.31
2023-08-18T11:50:20.849Z,28.70
2023-08-18T11:52:51.347Z,28.52
2023-08-18T11:55:30.226Z,28.30
2023-08-18T11:57:57.175Z,28.60
2023-08-18T12:00:32.202Z,28.83
2023-08-18T12:03:00.545Z,28.82
2023-08-18T12:05:28.174Z,28.22
2023-08-18T12:07:55.298Z,28.99
2023-08-18T12:10:23.287Z,29.29
2023-08-18T12:12:53.321Z,28.90
2023-08-18T12:15:21.655Z,29.03
2023-08-18T12:17:48.556Z,28.39
2023-08-18T12:20:20.317Z,28.49
2023-08-18T12:22:47.847Z,28.57
2023-08-18T12:25:14.821Z,28.61
2023-08-18T12:27:42.662Z,28.45
2023-08-18T12:30:10.381Z,28.65
2023-08-18T12:32:37.263Z,28.78
2023-08-18T12:35:05.414Z,28.78
2023-08-18T12:37:34.861Z,28.65
2023-08-18T12:40:01.680Z,28.88
2023-08-18T12:42:29.329Z,28.96
2023-08-18T12:44:56.299Z,28.91
2023-08-18T12:47:23.179Z,28.75
2023-08-18T12:49:50.106Z,28.45
2023-08-18T12:52:17.078Z,28.23
2023-08-18T12:54:46.552Z,28.01
2023-08-18T12:57:13.380Z,28.25
2023-08-18T12:59:40.262Z,28.90
2023-08-18T13:02:07.199Z,29.37
2023-08-18T13:04:34.223Z,29.53
2023-08-18T13:07:01.321Z,29.72
2023-08-18T13:09:28.361Z,29.73
2023-08-18T13:11:56.916Z,29.22
2023-08-18T13:14:26.746Z,29.23
2023-08-18T13:16:58.859Z,29.24
2023-08-18T13:19:26.838Z,29.64
2023-08-18T13:21:58.300Z,29.92
2023-08-18T13:24:26.912Z,30.17
2023-08-18T13:26:57.032Z,30.04
2023-08-18T13:29:26.079Z,29.93
2023-08-18T13:31:56.246Z,29.92
2023-08-18T13:34:23.327Z,29.48
2023-08-18T13:36:50.263Z,29.24
2023-08-18T13:39:20.275Z,29.04
2023-08-18T13:41:47.647Z,29.05
2023-08-18T13:44:14.538Z,29.13
2023-08-18T13:46:42.866Z,29.05
2023-08-18T13:49:12.188Z,29.56
2023-08-18T13:51:40.824Z,29.37
2023-08-18T13:54:12.654Z,29.96
2023-08-18T13:56:40.943Z,30.29
2023-08-18T13:59:07.825Z,29.97
2023-08-18T14:01:35.647Z,29.79
2023-08-18T14:04:04.614Z,30.37
2023-08-18T14:06:31.452Z,29.77
2023-08-18T14:08:58.543Z,29.87
2023-08-18T14:11:26.527Z,28.88
2023-08-18T14:13:53.376Z,27.96
2023-08-18T14:16:20.347Z,28.76
2023-08-18T14:18:47.209Z,28.91
2023-08-18T14:21:15.564Z,28.67
2023-08-18T14:23:42.348Z,28.45
2023-08-18T14:26:09.303Z,28.71
2023-08-18T14:28:36.316Z,28.95
2023-08-18T14:31:05.197Z,28.94
2023-08-18T14:33:45.636Z,28.91
2023-08-18T14:36:12.902Z,29.23
2023-08-18T14:38:41.096Z,29.84
2023-08-18T14:41:08.037Z,29.89
2023-08-18T14:43:36.505Z,29.93
2023-08-18T14:46:05.508Z,29.59
2023-08-18T14:48:32.417Z,30.13
2023-08-18T14:50:59.246Z,29.69
2023-08-18T14:53:26.153Z,29.49
2023-08-18T14:55:54.856Z,29.45
2023-08-18T14:58:26.743Z,29.25
2023-08-18T15:00:53.789Z,28.62
2023-08-18T15:03:20.729Z,28.43
2023-08-18T15:05:47.672Z,28.63
2023-08-18T15:08:14.839Z,28.84
2023-08-18T15:10:41.892Z,28.68
2023-08-18T15:13:10.223Z,28.78
2023-08-18T15:15:37.157Z,29.27
2023-08-18T15:18:04.917Z,29.20
2023-08-18T15:20:32.431Z,29.21
2023-08-18T15:22:59.870Z,29.32
2023-08-18T15:25:27.225Z,29.24
2023-08-18T15:27:54.192Z,29.08
2023-08-18T15:30:22.686Z,29.31
2023-08-18T15:32:50.176Z,29.34
2023-08-18T15:35:17.184Z,29.28
2023-08-18T15:37:44.026Z,29.42
2023-08-18T15:40:11.547Z,29.69
2023-08-18T15:42:38.536Z,29.91
2023-08-18T15:45:06.351Z,29.86
2023-08-18T15:47:35.990Z,29.90
2023-08-18T15:50:04.435Z,30.02
2023-08-18T15:52:31.310Z,30.35
2023-08-18T15:54:58.159Z,29.85
2023-08-18T15:57:25.170Z,29.34
2023-08-18T15:59:52.079Z,29.31
2023-08-18T16:02:18.996Z,29.25
2023-08-18T16:04:48.791Z,29.65
2023-08-18T16:07:15.795Z,29.67
2023-08-18T16:09:42.680Z,29.70
2023-08-18T16:12:10.026Z,30.06
2023-08-18T16:17:06.959Z,29.56
2023-08-18T16:19:34.005Z,29.34
2023-08-18T16:22:02.181Z,29.16
2023-08-18T16:24:28.990Z,28.80
2023-08-18T16:26:59.068Z,29.32
2023-08-18T16:29:26.383Z,29.06
2023-08-18T16:31:53.296Z,29.08
2023-08-18T16:34:22.683Z,29.27
2023-08-18T16:36:50.226Z,28.96
2023-08-18T16:39:18.639Z,29.19
2023-08-18T16:41:45.894Z,29.06
2023-08-18T16:44:12.969Z,28.72
2023-08-18T16:46:40.980Z,28.85
2023-08-18T16:49:08.335Z,28.81
2023-08-18T16:51:36.093Z,28.87
2023-08-18T16:54:03.128Z,28.98
2023-08-18T16:56:31.861Z,29.21
2023-08-18T16:58:58.707Z,29.12
2023-08-18T17:01:25.555Z,29.23
2023-08-18T17:03:52.876Z,29.16
2023-08-18T17:06:19.797Z,29.27
2023-08-18T17:08:46.783Z,29.49
2023-08-18T17:11:13.656Z,29.62
2023-08-18T17:13:41.986Z,29.80
2023-08-18T17:16:08.848Z,29.92
2023-08-18T17:18:35.765Z,30.00
2023-08-18T17:21:02.769Z,29.99
2023-08-18T17:23:29.750Z,30.10
2023-08-18T17:25:56.668Z,30.14
2023-08-18T17:28:23.629Z,29.93
2023-08-18T17:30:52.001Z,29.92
2023-08-18T17:33:19.070Z,29.69
2023-08-18T17:35:46.112Z,29.24
2023-08-18T17:38:14.054Z,29.23
2023-08-18T17:40:43.205Z,29.05
2023-08-18T17:43:10.201Z,28.94
2023-08-18T17:45:41.532Z,28.69
2023-08-18T17:48:10.360Z,28.80
2023-08-18T17:50:40.073Z,28.75
2023-08-18T17:53:07.624Z,28.63
2023-08-18T17:55:34.782Z,28.60
2023-08-18T17:58:01.804Z,28.50
2023-08-18T18:00:29.869Z,28.46
2023-08-18T18:02:57.148Z,28.42
2023-08-18T18:05:25.784Z,28.23
2023-08-18T18:07:52.871Z,28.14
2023-08-18T18:10:21.514Z,27.99
2023-08-18T18:12:49.176Z,27.91
2023-08-18T18:15:16.493Z,27.76
2023-08-18T18:17:43.529Z,27.70
2023-08-18T18:20:13.143Z,27.52
2023-08-18T18:22:41.671Z,27.39
2023-08-18T18:25:09.339Z,27.35
2023-08-18T18:27:36.691Z,27.25
2023-08-18T18:30:04.147Z,27.10
2023-08-18T18:32:31.273Z,27.06
2023-08-18T18:34:58.373Z,27.04
2023-08-18T18:37:25.328Z,26.98
2023-08-18T18:39:53.769Z,27.02
2023-08-18T18:42:20.757Z,26.91
2023-08-18T18:44:47.722Z,26.99
2023-08-18T18:47:16.373Z,27.02
2023-08-18T18:49:43.637Z,27.09
2023-08-18T18:52:10.662Z,27.05
2023-08-18T18:54:37.545Z,26.98
2023-08-18T18:57:06.143Z,27.04
2023-08-18T18:59:33.213Z,26.95
2023-08-18T19:02:00.058Z,27.17
2023-08-18T19:04:27.090Z,27.21
2023-08-18T19:06:53.916Z,27.22
2023-08-18T19:09:20.824Z,27.25
2023-08-18T19:11:49.281Z,27.14
2023-08-18T19:14:17.734Z,27.13
2023-08-18T19:16:44.588Z,27.20
2023-08-18T19:19:11.662Z,27.24
2023-08-18T19:21:44.401Z,27.04
2023-08-18T19:24:11.318Z,27.10
2023-08-18T19:26:38.314Z,27.21
2023-08-18T19:29:05.389Z,27.29
2023-08-18T19:31:34.027Z,27.23
2023-08-18T19:34:01.005Z,27.01
2023-08-18T19:36:27.857Z,27.16
2023-08-18T19:38:57.469Z,27.00
2023-08-18T19:41:24.465Z,27.09
2023-08-18T19:43:51.342Z,27.07
2023-08-18T19:46:18.298Z,27.03
2023-08-18T19:48:46.552Z,26.98
2023-08-18T19:51:13.488Z,26.99
2023-08-18T19:53:40.331Z,26.76
2023-08-18T19:56:07.136Z,26.84
2023-08-18T19:58:34.047Z,26.88
2023-08-18T20:01:04.262Z,26.68
2023-08-18T20:03:33.709Z,26.69
2023-08-18T20:06:05.201Z,26.73
2023-08-18T20:08:32.314Z,26.88
2023-08-18T20:10:59.254Z,26.80
2023-08-18T20:13:26.327Z,26.89
2023-08-18T20:15:54.999Z,26.96
2023-08-18T20:18:21.871Z,26.88
2023-08-18T20:20:48.761Z,27.01
2023-08-18T20:23:17.056Z,26.91
2023-08-18T20:25:44.003Z,27.04
2023-08-18T20:28:10.987Z,27.03
2023-08-18T20:30:43.456Z,27.14
2023-08-18T20:33:11.548Z,27.15
2023-08-18T20:35:38.547Z,27.22
2023-08-18T20:38:05.470Z,27.20
2023-08-18T20:40:34.399Z,27.16
2023-08-18T20:43:01.241Z,27.17
2023-08-18T20:45:28.077Z,27.12
2023-08-18T20:47:54.984Z,27.00
2023-08-18T20:50:21.908Z,27.17
2023-08-18T20:52:48.742Z,26.84
2023-08-18T20:55:15.826Z,26.93
2023-08-18T20:57:44.045Z,27.10
2023-08-18T21:00:11.808Z,27.15
2023-08-18T21:02:38.844Z,27.10
2023-08-18T21:05:06.454Z,27.17
2023-08-18T21:07:34.296Z,27.13
2023-08-18T21:10:01.751Z,27.07
2023-08-18T21:12:28.762Z,26.90
2023-08-18T21:14:57.150Z,26.99
2023-08-18T21:17:26.594Z,27.14
2023-08-18T21:19:53.825Z,27.13
2023-08-18T21:22:20.714Z,26.99
2023-08-18T21:24:48.202Z,26.85
2023-08-18T21:27:15.076Z,27.03
2023-08-18T21:29:41.952Z,26.87
2023-08-18T21:32:10.210Z,26.95
2023-08-18T21:34:37.171Z,27.04
2023-08-18T21:37:05.443Z,26.89
2023-08-18T21:39:33.960Z,26.81
2023-08-18T21:42:00.919Z,26.92
2023-08-18T21:44:27.753Z,26.85
2023-08-18T21:46:54.575Z,26.69
2023-08-18T21:49:22.953Z,26.64
2023-08-18T21:51:49.790Z,26.95
2023-08-18T21:54:16.745Z,26.87
2023-08-18T21:56:46.670Z,27.03
2023-08-18T21:59:13.524Z,27.09
2023-08-18T22:01:40.539Z,26.90
2023-08-18T22:04:07.342Z,27.08
2023-08-18T22:06:35.654Z,27.15
2023-08-18T22:09:02.926Z,27.17
2023-08-18T22:11:29.836Z,26.99
2023-08-18T22:13:56.634Z,26.95
2023-08-18T22:16:23.618Z,27.07
2023-08-18T22:18:50.482Z,26.66
2023-08-18T22:21:17.290Z,26.76
2023-08-18T22:23:45.493Z,26.88
2023-08-18T22:26:12.425Z,27.04
2023-08-18T22:28:39.281Z,26.92
2023-08-18T22:31:06.150Z,26.98
2023-08-18T22:33:33.076Z,27.10
2023-08-18T22:36:00.117Z,27.13
2023-08-18T22:38:27.137Z,27.05
2023-08-18T22:40:59.959Z,26.71
2023-08-18T22:43:27.159Z,27.03
2023-08-18T22:45:54.897Z,27.18
2023-08-18T22:48:22.481Z,27.12
2023-08-18T22:50:49.581Z,27.12
2023-08-18T22:53:16.718Z,27.06
2023-08-18T22:55:44.059Z,27.13
2023-08-18T22:58:12.275Z,26.81
2023-08-18T23:00:39.253Z,26.76
2023-08-18T23:03:06.255Z,26.91
2023-08-18T23:05:33.299Z,26.83
2023-08-18T23:08:00.239Z,26.97
2023-08-18T23:10:27.164Z,26.96
2023-08-18T23:12:53.984Z,26.58
2023-08-18T23:15:22.357Z,26.79
2023-08-18T23:17:49.215Z,26.67
2023-08-18T23:20:16.145Z,26.68
2023-08-18T23:22:43.011Z,26.80
2023-08-18T23:25:10.507Z,26.67
2023-08-18T23:27:37.665Z,26.89
2023-08-18T23:30:05.516Z,26.83
2023-08-18T23:32:33.820Z,26.82
2023-08-18T23:35:01.282Z,26.91
2023-08-18T23:37:28.128Z,26.88
2023-08-18T23:39:54.995Z,26.86
2023-08-18T23:42:21.788Z,26.82
2023-08-18T23:44:48.636Z,26.73
2023-08-18T23:47:15.678Z,26.59
2023-08-18T23:49:43.834Z,26.76
2023-08-18T23:52:10.729Z,26.79
2023-08-18T23:54:37.578Z,26.82
2023-08-18T23:57:05.882Z,26.75
2023-08-18T23:59:32.762Z,26.68
